sensor_id;sensor_type;location;lat;lon;timestamp;pressure;altitude;pressure_sealevel;temperature;humidity
12913;BME280;6524;51.368;11.984;2023-07-31T04:02:15;155682.44;;;13.87;64.35
12913;BME280;6524;51.368;11.984;2023-07-31T04:07:16;155571.16;;;13.44;66.25
12913;BME280;6524;51.368;11.984;2023-07-31T04:12:16;155708.59;;;13.98;64.76
12913;BME280;6524;51.368;11.984;2023-07-31T04:17:19;155575.06;;;13.45;66.41
12913;BME280;6524;51.368;11.984;2023-07-31T04:22:20;155579.03;;;13.47;67.08
12913;BME280;6524;51.368;11.984;2023-07-31T04:27:21;155572.47;;;13.44;67.57
12913;BME280;6524;51.368;11.984;2023-07-31T04:32:21;155562.00;;;13.40;68.28
12913;BME280;6524;51.368;11.984;2023-07-31T04:37:21;155575.06;;;13.45;68.56
12913;BME280;6524;51.368;11.984;2023-07-31T04:42:21;155478.19;;;13.08;69.56
12913;BME280;6524;51.368;11.984;2023-07-31T04:47:22;155609.09;;;13.59;68.61
12913;BME280;6524;51.368;11.984;2023-07-31T04:52:22;155541.00;;;13.32;69.59
12913;BME280;6524;51.368;11.984;2023-07-31T04:57:22;155585.53;;;13.49;69.09
12913;BME280;6524;51.368;11.984;2023-07-31T05:02:23;155556.75;;;13.38;70.80
12913;BME280;6524;51.368;11.984;2023-07-31T05:07:24;155516.16;;;13.22;72.16
12913;BME280;6524;51.368;11.984;2023-07-31T05:12:24;155509.59;;;13.20;72.82
12913;BME280;6524;51.368;11.984;2023-07-31T05:17:25;155484.75;;;13.10;73.17
12913;BME280;6524;51.368;11.984;2023-07-31T05:22:25;155577.66;;;13.46;72.04
12913;BME280;6524;51.368;11.984;2023-07-31T05:27:25;155598.63;;;13.55;71.93
12913;BME280;6524;51.368;11.984;2023-07-31T05:32:26;155559.38;;;13.39;72.18
12913;BME280;6524;51.368;11.984;2023-07-31T05:37:26;155516.16;;;13.22;72.11
12913;BME280;6524;51.368;11.984;2023-07-31T05:42:27;155601.22;;;13.56;71.41
12913;BME280;6524;51.368;11.984;2023-07-31T05:47:27;155590.78;;;13.52;70.90
12913;BME280;6524;51.368;11.984;2023-07-31T05:52:27;155596.03;;;13.54;70.95
12913;BME280;6524;51.368;11.984;2023-07-31T05:57:29;155590.78;;;13.52;71.19
12913;BME280;6524;51.368;11.984;2023-07-31T06:02:29;155584.22;;;13.49;70.84
12913;BME280;6524;51.368;11.984;2023-07-31T06:07:33;155507.00;;;13.19;71.65
12913;BME280;6524;51.368;11.984;2023-07-31T06:12:34;155619.59;;;13.63;70.98
12913;BME280;6524;51.368;11.984;2023-07-31T06:17:35;155555.47;;;13.38;71.48
12913;BME280;6524;51.368;11.984;2023-07-31T06:22:35;155724.31;;;14.04;70.13
12913;BME280;6524;51.368;11.984;2023-07-31T06:27:35;155852.69;;;14.54;67.59
12913;BME280;6524;51.368;11.984;2023-07-31T06:32:35;155910.31;;;14.76;65.58
12913;BME280;6524;51.368;11.984;2023-07-31T06:37:36;155952.22;;;14.93;64.68
12913;BME280;6524;51.368;11.984;2023-07-31T06:42:37;155957.53;;;14.95;63.72
12913;BME280;6524;51.368;11.984;2023-07-31T06:47:37;155996.84;;;15.10;63.22
12913;BME280;6524;51.368;11.984;2023-07-31T06:52:39;155946.97;;;14.91;63.55
12913;BME280;6524;51.368;11.984;2023-07-31T06:57:39;155884.13;;;14.66;64.24
12913;BME280;6524;51.368;11.984;2023-07-31T07:02:40;156023.03;;;15.20;63.30
12913;BME280;6524;51.368;11.984;2023-07-31T07:07:41;155968.00;;;14.99;63.07
12913;BME280;6524;51.368;11.984;2023-07-31T07:12:41;155996.84;;;15.10;63.42
12913;BME280;6524;51.368;11.984;2023-07-31T07:17:41;156009.91;;;15.15;63.28
12913;BME280;6524;51.368;11.984;2023-07-31T07:22:42;156017.78;;;15.18;63.50
12913;BME280;6524;51.368;11.984;2023-07-31T07:27:45;156054.47;;;15.32;62.30
12913;BME280;6524;51.368;11.984;2023-07-31T07:32:45;156137.03;;;15.65;61.68
12913;BME280;6524;51.368;11.984;2023-07-31T07:37:48;156096.41;;;15.49;62.11
12913;BME280;6524;51.368;11.984;2023-07-31T07:42:50;156135.72;;;15.64;62.25
12913;BME280;6524;51.368;11.984;2023-07-31T07:47:52;156114.72;;;15.56;61.85
12913;BME280;6524;51.368;11.984;2023-07-31T07:52:53;156054.47;;;15.32;61.96
12913;BME280;6524;51.368;11.984;2023-07-31T07:57:53;156041.34;;;15.27;62.30
12913;BME280;6524;51.368;11.984;2023-07-31T08:02:54;156209.16;;;15.93;61.04
12913;BME280;6524;51.368;11.984;2023-07-31T08:07:54;156198.69;;;15.89;60.93
12913;BME280;6524;51.368;11.984;2023-07-31T08:12:55;156203.91;;;15.91;60.58
12913;BME280;6524;51.368;11.984;2023-07-31T08:17:56;156328.47;;;16.39;58.84
12913;BME280;6524;51.368;11.984;2023-07-31T08:22:56;156356.03;;;16.50;59.05
12913;BME280;6524;51.368;11.984;2023-07-31T08:27:56;156432.13;;;16.80;58.15
12913;BME280;6524;51.368;11.984;2023-07-31T08:32:57;156455.75;;;16.89;57.42
12913;BME280;6524;51.368;11.984;2023-07-31T08:37:57;156436.06;;;16.81;57.23
12913;BME280;6524;51.368;11.984;2023-07-31T08:42:58;156411.13;;;16.72;58.27
12913;BME280;6524;51.368;11.984;2023-07-31T08:48:02;156426.88;;;16.78;57.76
12913;BME280;6524;51.368;11.984;2023-07-31T08:53:02;156409.84;;;16.71;57.44
12913;BME280;6524;51.368;11.984;2023-07-31T08:58:06;156388.84;;;16.63;57.68
12913;BME280;6524;51.368;11.984;2023-07-31T09:03:13;156466.22;;;16.93;56.90
12913;BME280;6524;51.368;11.984;2023-07-31T09:08:15;156600.13;;;17.45;56.25
12913;BME280;6524;51.368;11.984;2023-07-31T09:13:17;156492.44;;;17.03;56.87
12913;BME280;6524;51.368;11.984;2023-07-31T09:18:18;156424.28;;;16.77;57.38
12913;BME280;6524;51.368;11.984;2023-07-31T09:23:25;156455.75;;;16.89;57.27
12913;BME280;6524;51.368;11.984;2023-07-31T09:28:31;156434.75;;;16.81;57.82
12913;BME280;6524;51.368;11.984;2023-07-31T09:33:34;156467.53;;;16.93;58.23
12913;BME280;6524;51.368;11.984;2023-07-31T09:38:56;156442.63;;;16.84;57.56
12913;BME280;6524;51.368;11.984;2023-07-31T09:43:58;156541.03;;;17.22;58.68
12913;BME280;6524;51.368;11.984;2023-07-31T09:49:12;156621.06;;;17.53;58.34
12913;BME280;6524;51.368;11.984;2023-07-31T09:54:16;156720.91;;;17.92;55.69
12913;BME280;6524;51.368;11.984;2023-07-31T09:59:20;156770.75;;;18.12;54.66
12913;BME280;6524;51.368;11.984;2023-07-31T10:04:27;156749.75;;;18.03;54.68
12913;BME280;6524;51.368;11.984;2023-07-31T10:09:30;156821.94;;;18.31;53.79
12913;BME280;6524;51.368;11.984;2023-07-31T10:19:42;156751.03;;;18.04;55.03
12913;BME280;6524;51.368;11.984;2023-07-31T10:24:43;156639.47;;;17.60;55.61
12913;BME280;6524;51.368;11.984;2023-07-31T10:29:44;156631.59;;;17.57;56.05
12913;BME280;6524;51.368;11.984;2023-07-31T10:34:48;156731.38;;;17.96;55.33
12913;BME280;6524;51.368;11.984;2023-07-31T10:45:00;156870.56;;;18.50;54.27
12913;BME280;6524;51.368;11.984;2023-07-31T10:50:17;156912.56;;;18.67;53.91
12913;BME280;6524;51.368;11.984;2023-07-31T10:55:32;156966.44;;;18.88;52.86
12913;BME280;6524;51.368;11.984;2023-07-31T11:00:33;156919.16;;;18.69;54.01
12913;BME280;6524;51.368;11.984;2023-07-31T11:05:53;156957.25;;;18.84;53.72
12913;BME280;6524;51.368;11.984;2023-07-31T11:16:02;156841.66;;;18.39;53.83
12913;BME280;6524;51.368;11.984;2023-07-31T11:21:03;156875.84;;;18.52;53.61
12913;BME280;6524;51.368;11.984;2023-07-31T11:26:05;156941.47;;;18.78;52.83
12913;BME280;6524;51.368;11.984;2023-07-31T11:31:08;156819.34;;;18.30;52.69
12913;BME280;6524;51.368;11.984;2023-07-31T11:36:20;156849.53;;;18.42;51.84
12913;BME280;6524;51.368;11.984;2023-07-31T11:41:20;156806.19;;;18.25;52.16
12913;BME280;6524;51.368;11.984;2023-07-31T11:46:22;156874.53;;;18.52;50.68
12913;BME280;6524;51.368;11.984;2023-07-31T11:51:22;156663.06;;;17.70;52.96
12913;BME280;6524;51.368;11.984;2023-07-31T11:56:24;156768.16;;;18.11;52.36
12913;BME280;6524;51.368;11.984;2023-07-31T12:01:26;156825.91;;;18.33;51.96
12913;BME280;6524;51.368;11.984;2023-07-31T12:06:35;156840.34;;;18.39;52.44
12913;BME280;6524;51.368;11.984;2023-07-31T12:11:45;156920.44;;;18.70;51.00
12913;BME280;6524;51.368;11.984;2023-07-31T12:16:46;156917.84;;;18.69;51.25
12913;BME280;6524;51.368;11.984;2023-07-31T12:21:47;156975.63;;;18.91;50.98
12913;BME280;6524;51.368;11.984;2023-07-31T12:26:48;157004.53;;;19.03;50.70
12913;BME280;6524;51.368;11.984;2023-07-31T12:31:49;157029.47;;;19.12;50.33
12913;BME280;6524;51.368;11.984;2023-07-31T12:36:49;157129.34;;;19.51;49.32
12913;BME280;6524;51.368;11.984;2023-07-31T12:41:49;157049.22;;;19.20;49.52
12913;BME280;6524;51.368;11.984;2023-07-31T12:46:50;157114.94;;;19.45;49.45
12913;BME280;6524;51.368;11.984;2023-07-31T12:51:50;157122.81;;;19.49;48.84
12913;BME280;6524;51.368;11.984;2023-07-31T12:56:51;157201.66;;;19.79;47.69
12913;BME280;6524;51.368;11.984;2023-07-31T13:01:56;157114.94;;;19.45;48.18
12913;BME280;6524;51.368;11.984;2023-07-31T13:06:57;157248.97;;;19.98;46.22
12913;BME280;6524;51.368;11.984;2023-07-31T13:11:57;157354.09;;;20.38;44.85
12913;BME280;6524;51.368;11.984;2023-07-31T13:16:57;157259.53;;;20.02;45.28
12913;BME280;6524;51.368;11.984;2023-07-31T13:21:57;157225.31;;;19.88;45.61
12913;BME280;6524;51.368;11.984;2023-07-31T13:26:58;157243.75;;;19.96;46.01
12913;BME280;6524;51.368;11.984;2023-07-31T13:31:58;157107.06;;;19.42;47.27
12913;BME280;6524;51.368;11.984;2023-07-31T13:36:59;157133.31;;;19.53;47.33
12913;BME280;6524;51.368;11.984;2023-07-31T13:41:59;157068.94;;;19.28;48.38
12913;BME280;6524;51.368;11.984;2023-07-31T13:47:00;157051.88;;;19.21;49.51
12913;BME280;6524;51.368;11.984;2023-07-31T13:52:01;156963.81;;;18.87;50.40
12913;BME280;6524;51.368;11.984;2023-07-31T13:57:02;156907.34;;;18.65;50.33
12913;BME280;6524;51.368;11.984;2023-07-31T14:02:02;156909.97;;;18.66;49.91
12913;BME280;6524;51.368;11.984;2023-07-31T14:07:03;156923.09;;;18.71;50.08
12913;BME280;6524;51.368;11.984;2023-07-31T14:12:05;156983.50;;;18.94;49.00
12913;BME280;6524;51.368;11.984;2023-07-31T14:17:05;157003.22;;;19.02;49.05
12913;BME280;6524;51.368;11.984;2023-07-31T14:22:06;156925.72;;;18.72;48.77
12913;BME280;6524;51.368;11.984;2023-07-31T14:27:06;156883.72;;;18.56;49.15
12913;BME280;6524;51.368;11.984;2023-07-31T14:32:07;156887.63;;;18.57;48.89
12913;BME280;6524;51.368;11.984;2023-07-31T14:37:07;156946.75;;;18.80;48.94
12913;BME280;6524;51.368;11.984;2023-07-31T14:42:08;156949.34;;;18.81;49.77
12913;BME280;6524;51.368;11.984;2023-07-31T14:47:09;156852.16;;;18.43;50.62
12913;BME280;6524;51.368;11.984;2023-07-31T14:52:09;156911.25;;;18.66;49.55
12913;BME280;6524;51.368;11.984;2023-07-31T14:57:09;157026.88;;;19.11;48.77
12913;BME280;6524;51.368;11.984;2023-07-31T15:02:10;157007.13;;;19.04;48.91
12913;BME280;6524;51.368;11.984;2023-07-31T15:07:10;156854.75;;;18.44;49.80
12913;BME280;6524;51.368;11.984;2023-07-31T15:12:11;156875.84;;;18.52;49.61
12913;BME280;6524;51.368;11.984;2023-07-31T15:17:11;156849.53;;;18.42;49.84
12913;BME280;6524;51.368;11.984;2023-07-31T15:22:11;156793.09;;;18.20;50.29
12913;BME280;6524;51.368;11.984;2023-07-31T15:27:12;156751.03;;;18.04;51.50
12913;BME280;6524;51.368;11.984;2023-07-31T15:32:13;156745.81;;;18.02;51.54
12913;BME280;6524;51.368;11.984;2023-07-31T15:37:13;156692.00;;;17.81;52.55
12913;BME280;6524;51.368;11.984;2023-07-31T15:42:13;156672.28;;;17.73;52.89
12913;BME280;6524;51.368;11.984;2023-07-31T15:47:14;156697.25;;;17.83;53.04
12913;BME280;6524;51.368;11.984;2023-07-31T15:52:14;156681.47;;;17.77;53.22
12913;BME280;6524;51.368;11.984;2023-07-31T15:57:15;156713.03;;;17.89;52.46
12913;BME280;6524;51.368;11.984;2023-07-31T16:02:15;156749.75;;;18.03;52.74
12913;BME280;6524;51.368;11.984;2023-07-31T16:07:16;156765.50;;;18.10;53.16
12913;BME280;6524;51.368;11.984;2023-07-31T16:12:16;156752.41;;;18.04;52.96
12913;BME280;6524;51.368;11.984;2023-07-31T16:17:17;156702.47;;;17.85;53.59
12913;BME280;6524;51.368;11.984;2023-07-31T16:22:17;156702.47;;;17.85;53.47
12913;BME280;6524;51.368;11.984;2023-07-31T16:27:17;156716.94;;;17.91;53.62
12913;BME280;6524;51.368;11.984;2023-07-31T16:32:19;156736.66;;;17.98;53.29
12913;BME280;6524;51.368;11.984;2023-07-31T16:37:19;156734.00;;;17.97;53.62
12913;BME280;6524;51.368;11.984;2023-07-31T16:42:21;156786.53;;;18.18;53.09
12913;BME280;6524;51.368;11.984;2023-07-31T16:47:22;156793.09;;;18.20;53.04
12913;BME280;6524;51.368;11.984;2023-07-31T16:52:22;156749.75;;;18.03;54.00
12913;BME280;6524;51.368;11.984;2023-07-31T16:57:22;156812.75;;;18.28;53.32
12913;BME280;6524;51.368;11.984;2023-07-31T17:02:24;156762.88;;;18.08;53.17
12913;BME280;6524;51.368;11.984;2023-07-31T17:07:24;156773.38;;;18.13;53.43
12913;BME280;6524;51.368;11.984;2023-07-31T17:12:25;156840.34;;;18.39;52.77
12913;BME280;6524;51.368;11.984;2023-07-31T17:17:25;156731.38;;;17.96;53.86
12913;BME280;6524;51.368;11.984;2023-07-31T17:22:25;156714.31;;;17.90;54.09
12913;BME280;6524;51.368;11.984;2023-07-31T17:27:26;156737.94;;;17.99;54.15
12913;BME280;6524;51.368;11.984;2023-07-31T17:32:27;156751.03;;;18.04;54.30
12913;BME280;6524;51.368;11.984;2023-07-31T17:37:28;156713.03;;;17.89;54.59
12913;BME280;6524;51.368;11.984;2023-07-31T17:42:28;156697.25;;;17.83;54.43
12913;BME280;6524;51.368;11.984;2023-07-31T17:47:28;156741.88;;;18.00;54.03
12913;BME280;6524;51.368;11.984;2023-07-31T17:52:29;156747.13;;;18.02;54.46
12913;BME280;6524;51.368;11.984;2023-07-31T17:57:29;156785.22;;;18.17;54.09
12913;BME280;6524;51.368;11.984;2023-07-31T18:02:30;156783.91;;;18.17;53.48
12913;BME280;6524;51.368;11.984;2023-07-31T18:07:31;156776.03;;;18.14;53.68
12913;BME280;6524;51.368;11.984;2023-07-31T18:12:31;156727.41;;;17.95;54.24
12913;BME280;6524;51.368;11.984;2023-07-31T18:17:31;156657.84;;;17.68;54.84
12913;BME280;6524;51.368;11.984;2023-07-31T18:22:32;156642.09;;;17.61;55.20
12913;BME280;6524;51.368;11.984;2023-07-31T18:27:32;156715.63;;;17.90;54.17
12913;BME280;6524;51.368;11.984;2023-07-31T18:32:32;156724.81;;;17.94;54.61
12913;BME280;6524;51.368;11.984;2023-07-31T18:37:33;156665.72;;;17.71;54.77
12913;BME280;6524;51.368;11.984;2023-07-31T18:42:34;156649.97;;;17.65;54.75
12913;BME280;6524;51.368;11.984;2023-07-31T18:47:34;156639.47;;;17.60;54.52
12913;BME280;6524;51.368;11.984;2023-07-31T18:52:34;156593.53;;;17.43;54.43
12913;BME280;6524;51.368;11.984;2023-07-31T18:57:35;156715.63;;;17.90;54.27
12913;BME280;6524;51.368;11.984;2023-07-31T19:02:35;156719.59;;;17.92;53.62
12913;BME280;6524;51.368;11.984;2023-07-31T19:07:36;156684.06;;;17.78;54.39
12913;BME280;6524;51.368;11.984;2023-07-31T19:12:37;156619.78;;;17.53;54.77
12913;BME280;6524;51.368;11.984;2023-07-31T19:17:40;156623.72;;;17.54;54.83
12913;BME280;6524;51.368;11.984;2023-07-31T19:22:46;156602.72;;;17.46;55.46
12913;BME280;6524;51.368;11.984;2023-07-31T19:27:46;156668.31;;;17.72;54.76
12913;BME280;6524;51.368;11.984;2023-07-31T19:32:46;156644.69;;;17.62;54.41
12913;BME280;6524;51.368;11.984;2023-07-31T19:37:47;156640.78;;;17.61;55.08
12913;BME280;6524;51.368;11.984;2023-07-31T19:42:47;156563.34;;;17.31;55.24
12913;BME280;6524;51.368;11.984;2023-07-31T19:47:47;156573.84;;;17.35;55.56
12913;BME280;6524;51.368;11.984;2023-07-31T19:52:49;156580.41;;;17.37;55.54
12913;BME280;6524;51.368;11.984;2023-07-31T19:57:49;156531.88;;;17.19;55.91
12913;BME280;6524;51.368;11.984;2023-07-31T20:02:49;156634.22;;;17.58;54.77
12913;BME280;6524;51.368;11.984;2023-07-31T20:07:50;156586.97;;;17.40;55.15
12913;BME280;6524;51.368;11.984;2023-07-31T20:12:50;156581.72;;;17.38;54.82
12913;BME280;6524;51.368;11.984;2023-07-31T20:17:51;156560.75;;;17.30;55.18
12913;BME280;6524;51.368;11.984;2023-07-31T20:22:51;156539.72;;;17.22;55.27
12913;BME280;6524;51.368;11.984;2023-07-31T20:27:52;156552.88;;;17.27;55.25
12913;BME280;6524;51.368;11.984;2023-07-31T20:32:52;156400.66;;;16.67;57.07
12913;BME280;6524;51.368;11.984;2023-07-31T20:37:52;156537.13;;;17.21;56.04
12913;BME280;6524;51.368;11.984;2023-07-31T20:42:57;156506.88;;;17.09;56.49
12913;BME280;6524;51.368;11.984;2023-07-31T20:47:58;156527.94;;;17.17;56.52
12913;BME280;6524;51.368;11.984;2023-07-31T20:52:59;156548.91;;;17.25;56.18
12913;BME280;6524;51.368;11.984;2023-07-31T20:57:59;156460.97;;;16.91;57.19
12913;BME280;6524;51.368;11.984;2023-07-31T21:03:03;156453.09;;;16.88;57.54
12913;BME280;6524;51.368;11.984;2023-07-31T21:08:04;156467.53;;;16.93;58.06
12913;BME280;6524;51.368;11.984;2023-07-31T21:13:04;156398.06;;;16.66;59.35
12913;BME280;6524;51.368;11.984;2023-07-31T21:18:04;156411.13;;;16.72;59.60
12913;BME280;6524;51.368;11.984;2023-07-31T21:23:05;156321.91;;;16.37;61.06
12913;BME280;6524;51.368;11.984;2023-07-31T21:28:08;156258.97;;;16.12;63.04
12913;BME280;6524;51.368;11.984;2023-07-31T21:33:10;156248.50;;;16.08;64.70
12913;BME280;6524;51.368;11.984;2023-07-31T21:38:11;156240.63;;;16.05;65.18
12913;BME280;6524;51.368;11.984;2023-07-31T21:43:13;156214.44;;;15.95;65.26
12913;BME280;6524;51.368;11.984;2023-07-31T21:48:14;156004.69;;;15.13;68.03
12913;BME280;6524;51.368;11.984;2023-07-31T21:53:14;156061.03;;;15.35;69.43
12913;BME280;6524;51.368;11.984;2023-07-31T21:58:14;156004.69;;;15.13;71.02
12913;BME280;6524;51.368;11.984;2023-07-31T22:03:14;156066.25;;;15.37;71.27
12913;BME280;6524;51.368;11.984;2023-07-31T22:08:15;155988.97;;;15.07;73.56
12913;BME280;6524;51.368;11.984;2023-07-31T22:13:15;155926.03;;;14.82;74.48
12913;BME280;6524;51.368;11.984;2023-07-31T22:18:16;155878.88;;;14.64;75.24
12913;BME280;6524;51.368;11.984;2023-07-31T22:23:16;155836.97;;;14.48;76.79
12913;BME280;6524;51.368;11.984;2023-07-31T22:28:16;155852.69;;;14.54;77.46
12913;BME280;6524;51.368;11.984;2023-07-31T22:33:17;155812.09;;;14.38;77.44
12913;BME280;6524;51.368;11.984;2023-07-31T22:38:17;155852.69;;;14.54;77.52
12913;BME280;6524;51.368;11.984;2023-07-31T22:43:17;155893.28;;;14.70;76.32
12913;BME280;6524;51.368;11.984;2023-07-31T22:48:18;155915.56;;;14.78;76.91
12913;BME280;6524;51.368;11.984;2023-07-31T22:53:18;155931.25;;;14.84;76.59
12913;BME280;6524;51.368;11.984;2023-07-31T23:03:18;155802.94;;;14.34;79.22
12913;BME280;6524;51.368;11.984;2023-07-31T23:08:19;155823.84;;;14.43;78.37
12913;BME280;6524;51.368;11.984;2023-07-31T23:13:19;155922.09;;;14.81;77.42
12913;BME280;6524;51.368;11.984;2023-07-31T23:18:19;155860.56;;;14.57;78.85
12913;BME280;6524;51.368;11.984;2023-07-31T23:23:20;155830.41;;;14.45;79.08
12913;BME280;6524;51.368;11.984;2023-07-31T23:28:20;155736.06;;;14.08;81.30
12913;BME280;6524;51.368;11.984;2023-07-31T23:33:21;155833.03;;;14.46;79.80
12913;BME280;6524;51.368;11.984;2023-07-31T23:38:21;155776.72;;;14.24;80.78
12913;BME280;6524;51.368;11.984;2023-07-31T23:43:21;155836.97;;;14.48;79.58
12913;BME280;6524;51.368;11.984;2023-07-31T23:48:22;155839.59;;;14.49;79.28
12913;BME280;6524;51.368;11.984;2023-07-31T23:53:22;155895.91;;;14.71;78.00
12913;BME280;6524;51.368;11.984;2023-07-31T23:58:23;155863.16;;;14.58;78.25
